Time;durP1;ratioP1;P1;durP2;ratioP2;P2;SDS_P1;SDS_P2;PMS_P1;PMS_P2;Temp;Humidity;BMP_temperature;BMP_pressure;BME280_temperature;BME280_humidity;BME280_pressure;Samples;Min_cycle;Max_cycle;Signal;HPM_P1;HPM_P2
2023/08/09 00:01:56;;;;;;;2.00;1.30;;;;;;;;;;5052725;28;20060;-64
2023/08/09 00:04:23;;;;;;;2.70;1.45;;;;;;;;;;5048178;28;20052;-64
2023/08/09 00:06:49;;;;;;;2.88;1.40;;;;;;;;;;5064059;28;20115;-64
2023/08/09 00:09:16;;;;;;;2.75;1.60;;;;;;;;;;5031636;28;20127;-64
2023/08/09 00:11:45;;;;;;;2.47;1.42;;;;;;;;;;5031490;28;20118;-63
2023/08/09 00:14:12;;;;;;;;;;;;;;;;;;5016980;28;20046;-65
2023/08/09 00:16:39;;;;;;;3.30;1.65;;;;;;;;;;5014572;28;19924;-64
2023/08/09 00:19:06;;;;;;;3.40;1.65;;;;;;;;;;5017148;28;20050;-64
2023/08/09 00:21:33;;;;;;;3.53;1.75;;;;;;;;;;5018723;28;20057;-64
2023/08/09 00:24:00;;;;;;;3.28;1.77;;;;;;;;;;5019858;28;20053;-64
2023/08/09 00:26:27;;;;;;;3.83;1.85;;;;;;;;;;5007491;28;20273;-63
2023/08/09 00:28:55;;;;;;;3.20;1.70;;;;;;;;;;5017757;28;20045;-64
2023/08/09 00:31:22;;;;;;;2.92;1.50;;;;;;;;;;5018526;28;20057;-66
2023/08/09 00:33:49;;;;;;;4.95;1.77;;;;;;;;;;5015992;28;20053;-64
2023/08/09 00:36:16;;;;;;;3.25;1.55;;;;;;;;;;5017192;28;20073;-66
2023/08/09 00:38:43;;;;;;;3.13;1.88;;;;;;;;;;5038049;28;20184;-66
2023/08/09 00:41:10;;;;;;;3.42;1.83;;;;;;;;;;5037870;28;20056;-66
2023/08/09 00:43:36;;;;;;;3.15;1.83;;;;;;;;;;5038038;28;20132;-66
2023/08/09 00:46:06;;;;;;;4.13;2.05;;;;;;;;;;5033932;28;20045;-64
2023/08/09 00:48:32;;;;;;;2.97;1.80;;;;;;;;;;5032859;28;21729;-64
2023/08/09 00:50:59;;;;;;;3.45;1.90;;;;;;;;;;5038332;28;20124;-64
2023/08/09 00:53:26;;;;;;;3.38;1.83;;;;;;;;;;5035453;28;20110;-64
2023/08/09 00:55:53;;;;;;;4.15;1.92;;;;;;;;;;5035269;28;20057;-64
2023/08/09 00:58:20;;;;;;;3.88;1.85;;;;;;;;;;5035154;28;20071;-64
2023/08/09 01:00:47;;;;;;;5.15;2.13;;;;;;;;;;5038840;28;20052;-64
2023/08/09 01:03:16;;;;;;;4.75;2.50;;;;;;;;;;5040322;28;20048;-64
2023/08/09 01:05:50;;;;;;;5.20;2.35;;;;;;;;;;5050025;28;20064;-63
2023/08/09 01:08:25;;;;;;;4.32;2.25;;;;;;;;;;5031887;28;20045;-65
2023/08/09 01:11:02;;;;;;;6.50;2.53;;;;;;;;;;5038396;28;20048;-64
2023/08/09 01:13:32;;;;;;;4.30;2.33;;;;;;;;;;5036952;28;20116;-66
2023/08/09 01:16:00;;;;;;;5.15;2.58;;;;;;;;;;5033823;28;20056;-65
2023/08/09 01:18:29;;;;;;;5.37;2.87;;;;;;;;;;5030821;28;20060;-67
2023/08/09 01:20:58;;;;;;;6.13;2.83;;;;;;;;;;5037937;28;20315;-66
2023/08/09 01:23:32;;;;;;;5.60;2.75;;;;;;;;;;5039170;28;20151;-67
2023/08/09 01:25:59;;;;;;;6.43;3.25;;;;;;;;;;5033186;28;20124;-66
2023/08/09 01:28:26;;;;;;;5.75;3.38;;;;;;;;;;5031424;28;20139;-64
2023/08/09 01:30:53;;;;;;;8.40;3.67;;;;;;;;;;5036487;28;20106;-64
2023/08/09 01:33:20;;;;;;;6.53;3.65;;;;;;;;;;5071667;28;20055;-64
2023/08/09 01:35:53;;;;;;;7.50;4.25;;;;;;;;;;5032242;28;20053;-64
2023/08/09 01:38:25;;;;;;;8.40;3.80;;;;;;;;;;5034026;28;20072;-64
2023/08/09 01:40:55;;;;;;;7.72;4.13;;;;;;;;;;5036716;28;20049;-62
2023/08/09 01:43:22;;;;;;;7.00;3.70;;;;;;;;;;5036389;28;20056;-64
2023/08/09 01:45:50;;;;;;;7.67;3.80;;;;;;;;;;5034446;28;20056;-64
2023/08/09 01:48:17;;;;;;;7.00;3.53;;;;;;;;;;5035364;28;20139;-65
2023/08/09 01:50:45;;;;;;;9.90;4.15;;;;;;;;;;5039339;28;20148;-66
2023/08/09 01:53:12;;;;;;;7.88;4.03;;;;;;;;;;5038303;28;20065;-64
2023/08/09 01:55:40;;;;;;;8.02;3.95;;;;;;;;;;5031913;28;20080;-64
2023/08/09 01:58:09;;;;;;;6.00;3.53;;;;;;;;;;5036805;28;20061;-64
2023/08/09 02:00:36;;;;;;;6.82;3.95;;;;;;;;;;5032562;28;20053;-64
2023/08/09 02:03:04;;;;;;;8.57;4.10;;;;;;;;;;5032630;28;20056;-63
2023/08/09 02:05:31;;;;;;;7.82;4.22;;;;;;;;;;5023384;28;20080;-64
2023/08/09 02:07:58;;;;;;;10.13;5.07;;;;;;;;;;5049888;28;20067;-64
2023/08/09 02:10:25;;;;;;;11.50;4.93;;;;;;;;;;5012895;28;20160;-63
2023/08/09 02:12:52;;;;;;;9.05;4.65;;;;;;;;;;5051850;28;20121;-63
2023/08/09 02:15:21;;;;;;;9.67;5.10;;;;;;;;;;5033584;28;20046;-63
2023/08/09 02:17:50;;;;;;;9.90;5.03;;;;;;;;;;5036035;28;20118;-66
2023/08/09 02:20:17;;;;;;;11.07;5.05;;;;;;;;;;5029032;28;20048;-66
2023/08/09 02:22:44;;;;;;;9.63;5.20;;;;;;;;;;5050063;28;20053;-64
2023/08/09 02:25:13;;;;;;;8.67;4.60;;;;;;;;;;5034112;28;20190;-67
2023/08/09 02:27:40;;;;;;;9.75;4.75;;;;;;;;;;5039210;28;20296;-63
2023/08/09 02:30:09;;;;;;;9.15;4.43;;;;;;;;;;5041622;28;20049;-64
2023/08/09 02:32:37;;;;;;;10.57;5.10;;;;;;;;;;5035716;28;20147;-64
2023/08/09 02:35:06;;;;;;;11.45;5.22;;;;;;;;;;5035302;28;20080;-64
2023/08/09 02:37:34;;;;;;;11.15;5.20;;;;;;;;;;5037562;28;20067;-64
2023/08/09 02:40:01;;;;;;;10.40;4.97;;;;;;;;;;5033830;28;20053;-64
2023/08/09 02:42:28;;;;;;;11.90;5.60;;;;;;;;;;5023100;28;20063;-64
2023/08/09 02:44:55;;;;;;;16.80;5.85;;;;;;;;;;5032715;28;20156;-64
2023/08/09 02:47:23;;;;;;;14.88;5.82;;;;;;;;;;5043713;28;20124;-63
2023/08/09 02:49:51;;;;;;;13.27;5.30;;;;;;;;;;5038728;28;20059;-64
2023/08/09 02:52:18;;;;;;;;;;;;;;;;;;5020990;28;20058;-64
2023/08/09 02:54:45;;;;;;;10.45;4.45;;;;;;;;;;5015838;28;20011;-65
2023/08/09 02:57:12;;;;;;;12.40;5.22;;;;;;;;;;5020055;28;20065;-66
2023/08/09 02:59:39;;;;;;;8.70;4.70;;;;;;;;;;5017663;28;20061;-66
2023/08/09 03:02:07;;;;;;;12.75;4.70;;;;;;;;;;5049855;28;20140;-67
2023/08/09 03:04:36;;;;;;;9.98;4.60;;;;;;;;;;5035020;28;20084;-66
2023/08/09 03:07:05;;;;;;;11.07;4.85;;;;;;;;;;5024948;28;20248;-65
2023/08/09 03:09:32;;;;;;;10.57;4.47;;;;;;;;;;5036462;28;20107;-66
2023/08/09 03:11:59;;;;;;;13.10;6.18;;;;;;;;;;5057291;28;20055;-68
2023/08/09 03:14:27;;;;;;;10.98;5.43;;;;;;;;;;5031577;28;20048;-66
2023/08/09 03:16:54;;;;;;;10.30;4.95;;;;;;;;;;5052653;28;20053;-66
2023/08/09 03:19:20;;;;;;;11.35;5.20;;;;;;;;;;5038598;28;20049;-66
2023/08/09 03:21:47;;;;;;;11.27;5.20;;;;;;;;;;5038787;28;20061;-66
2023/08/09 03:24:15;;;;;;;11.15;4.57;;;;;;;;;;5025180;28;20060;-67
2023/08/09 03:26:42;;;;;;;9.82;4.68;;;;;;;;;;5034365;28;20115;-64
2023/08/09 03:29:09;;;;;;;14.15;5.70;;;;;;;;;;5018234;28;20062;-64
2023/08/09 03:31:35;;;;;;;13.00;5.72;;;;;;;;;;5017446;28;20049;-66
2023/08/09 03:34:02;;;;;;;12.43;5.07;;;;;;;;;;5017509;28;20057;-65
2023/08/09 03:36:29;;;;;;;12.35;5.60;;;;;;;;;;5010169;28;20088;-66
2023/08/09 03:38:56;;;;;;;13.40;5.93;;;;;;;;;;5050516;28;20060;-65
2023/08/09 03:41:26;;;;;;;12.95;5.25;;;;;;;;;;5053425;28;20057;-66
2023/08/09 03:43:52;;;;;;;11.95;5.35;;;;;;;;;;5029473;28;20060;-65
2023/08/09 03:46:19;;;;;;;13.52;5.50;;;;;;;;;;5026903;28;20148;-66
2023/08/09 03:48:46;;;;;;;12.77;5.32;;;;;;;;;;5057092;28;20073;-65
2023/08/09 03:51:13;;;;;;;18.95;5.53;;;;;;;;;;5057795;28;20053;-63
2023/08/09 03:53:40;;;;;;;12.93;6.03;;;;;;;;;;5051773;28;20049;-67
2023/08/09 03:56:07;;;;;;;13.10;5.50;;;;;;;;;;5040916;28;20155;-64
2023/08/09 03:58:35;;;;;;;13.73;5.88;;;;;;;;;;5022038;28;20122;-64
2023/08/09 04:01:02;;;;;;;14.85;5.82;;;;;;;;;;5021613;28;20115;-64
2023/08/09 04:03:29;;;;;;;13.60;6.63;;;;;;;;;;5020191;28;20068;-64
2023/08/09 04:05:56;;;;;;;15.60;6.30;;;;;;;;;;5036468;28;20210;-63
2023/08/09 04:08:26;;;;;;;14.73;6.75;;;;;;;;;;5034503;28;20053;-65
2023/08/09 04:10:54;;;;;;;15.55;6.70;;;;;;;;;;5055219;28;20055;-64
2023/08/09 04:13:21;;;;;;;17.33;7.53;;;;;;;;;;5025558;28;20161;-64
2023/08/09 04:15:50;;;;;;;14.63;6.97;;;;;;;;;;5017443;28;20056;-64
2023/08/09 04:18:17;;;;;;;17.88;6.65;;;;;;;;;;5012694;28;20057;-65
2023/08/09 04:20:45;;;;;;;16.60;7.32;;;;;;;;;;5019979;28;20069;-64
2023/08/09 04:23:12;;;;;;;15.13;6.57;;;;;;;;;;5024455;28;20046;-64
2023/08/09 04:25:39;;;;;;;15.77;7.30;;;;;;;;;;5017603;28;20152;-64
2023/08/09 04:28:08;;;;;;;17.13;7.53;;;;;;;;;;5020436;28;20045;-64
2023/08/09 04:30:36;;;;;;;18.05;7.32;;;;;;;;;;5028327;28;20061;-64
2023/08/09 04:33:05;;;;;;;17.90;7.60;;;;;;;;;;5040558;28;20041;-64
2023/08/09 04:35:31;;;;;;;;;;;;;;;;;;5036505;28;20041;-64
2023/08/09 04:37:58;;;;;;;15.95;6.35;;;;;;;;;;5039433;28;19971;-63
2023/08/09 04:40:26;;;;;;;26.25;10.27;;;;;;;;;;5036721;28;20057;-64
2023/08/09 04:42:53;;;;;;;21.67;8.30;;;;;;;;;;5040969;28;20057;-64
2023/08/09 04:45:19;;;;;;;19.38;7.55;;;;;;;;;;5064504;28;20140;-65
2023/08/09 04:47:47;;;;;;;16.45;7.03;;;;;;;;;;5039051;28;20052;-64
2023/08/09 04:50:16;;;;;;;13.70;6.03;;;;;;;;;;5033177;28;20045;-65
2023/08/09 04:52:43;;;;;;;17.42;6.72;;;;;;;;;;5071447;28;20037;-64
2023/08/09 04:55:11;;;;;;;20.42;6.57;;;;;;;;;;5034359;28;20203;-65
2023/08/09 04:57:38;;;;;;;18.50;6.93;;;;;;;;;;5041818;28;20147;-68
2023/08/09 05:00:15;;;;;;;19.65;8.45;;;;;;;;;;5053835;28;20302;-64
2023/08/09 05:02:42;;;;;;;20.95;10.00;;;;;;;;;;5039773;28;20244;-64
2023/08/09 05:05:12;;;;;;;17.55;6.88;;;;;;;;;;5025904;28;20136;-65
2023/08/09 05:07:42;;;;;;;16.88;6.50;;;;;;;;;;5039185;28;20136;-64
2023/08/09 05:10:11;;;;;;;16.05;6.82;;;;;;;;;;5036048;28;20053;-64
2023/08/09 05:12:38;;;;;;;16.27;6.68;;;;;;;;;;5054241;28;20053;-65
2023/08/09 05:15:13;;;;;;;18.42;6.88;;;;;;;;;;5032121;28;20064;-64
2023/08/09 05:17:54;;;;;;;17.80;6.88;;;;;;;;;;5054984;28;20052;-65
2023/08/09 05:20:21;;;;;;;17.90;6.95;;;;;;;;;;5032344;28;20168;-65
2023/08/09 05:22:50;;;;;;;16.23;7.05;;;;;;;;;;5037852;28;20083;-64
2023/08/09 05:25:19;;;;;;;17.67;7.05;;;;;;;;;;5045475;28;20049;-64
2023/08/09 05:27:48;;;;;;;14.90;6.47;;;;;;;;;;5017196;28;20081;-64
2023/08/09 05:30:14;;;;;;;20.60;8.55;;;;;;;;;;5009495;28;20084;-66
2023/08/09 05:32:41;;;;;;;17.65;7.47;;;;;;;;;;5019786;28;20065;-64
2023/08/09 05:35:09;;;;;;;16.23;6.95;;;;;;;;;;5028348;28;20059;-64
2023/08/09 05:37:38;;;;;;;18.97;7.43;;;;;;;;;;5038012;28;20049;-64
2023/08/09 05:40:07;;;;;;;;;;;;;;;;;;5020045;28;20107;-64
2023/08/09 05:42:34;;;;;;;14.70;6.57;;;;;;;;;;5020678;28;19925;-64
2023/08/09 05:45:01;;;;;;;19.27;7.95;;;;;;;;;;5004213;28;20077;-65
2023/08/09 05:47:28;;;;;;;15.32;7.38;;;;;;;;;;5000858;28;20118;-64
2023/08/09 05:49:55;;;;;;;16.77;6.90;;;;;;;;;;5033890;28;20046;-65
2023/08/09 05:52:22;;;;;;;16.33;6.72;;;;;;;;;;5012253;28;20061;-64
2023/08/09 05:54:49;;;;;;;15.75;6.82;;;;;;;;;;4995910;28;20156;-64
2023/08/09 05:57:17;;;;;;;13.50;6.68;;;;;;;;;;5029427;28;20152;-64
2023/08/09 05:59:45;;;;;;;15.23;6.80;;;;;;;;;;5055239;28;20061;-64
2023/08/09 06:02:12;;;;;;;15.75;6.63;;;;;;;;;;5050288;28;20053;-65
2023/08/09 06:04:39;;;;;;;15.40;7.18;;;;;;;;;;5032515;28;20160;-64
2023/08/09 06:07:07;;;;;;;13.55;6.65;;;;;;;;;;5039740;28;20063;-65
2023/08/09 06:09:34;;;;;;;17.77;6.90;;;;;;;;;;5037005;28;20064;-64
2023/08/09 06:12:04;;;;;;;16.17;6.63;;;;;;;;;;5042552;28;20060;-64
2023/08/09 06:14:33;;;;;;;14.88;7.57;;;;;;;;;;5019223;28;20052;-65
2023/08/09 06:17:01;;;;;;;15.85;6.72;;;;;;;;;;5037609;28;20053;-65
2023/08/09 06:19:36;;;;;;;15.82;7.05;;;;;;;;;;5036736;28;20049;-67
2023/08/09 06:22:03;;;;;;;14.00;6.50;;;;;;;;;;5038917;28;20095;-65
2023/08/09 06:24:33;;;;;;;14.45;6.72;;;;;;;;;;5005363;28;20068;-66
2023/08/09 06:27:00;;;;;;;13.43;7.18;;;;;;;;;;5019279;28;20061;-65
2023/08/09 06:29:27;;;;;;;15.98;6.45;;;;;;;;;;5026221;28;20081;-65
2023/08/09 06:31:56;;;;;;;15.95;7.75;;;;;;;;;;5021870;28;20054;-65
2023/08/09 06:34:23;;;;;;;;;;;;;;;;;;5006723;28;20107;-65
2023/08/09 06:36:50;;;;;;;19.35;9.05;;;;;;;;;;5020695;28;19927;-66
2023/08/09 06:39:17;;;;;;;15.23;7.78;;;;;;;;;;5017420;28;20061;-66
2023/08/09 06:41:44;;;;;;;17.08;7.72;;;;;;;;;;5020111;28;20117;-65
2023/08/09 06:44:12;;;;;;;16.27;8.05;;;;;;;;;;5041349;28;20053;-68
2023/08/09 06:46:39;;;;;;;15.82;7.70;;;;;;;;;;5020280;28;20057;-65
2023/08/09 06:49:07;;;;;;;18.77;6.97;;;;;;;;;;5017836;28;20059;-66
2023/08/09 06:51:36;;;;;;;14.02;7.18;;;;;;;;;;5033990;28;20056;-65
2023/08/09 06:54:04;;;;;;;14.63;6.72;;;;;;;;;;5032693;28;20053;-66
2023/08/09 06:56:31;;;;;;;15.50;7.50;;;;;;;;;;5030877;28;20168;-65
2023/08/09 06:58:58;;;;;;;17.20;7.82;;;;;;;;;;5039491;28;20056;-65
2023/08/09 07:01:25;;;;;;;19.98;9.45;;;;;;;;;;5040361;28;20049;-65
2023/08/09 07:03:53;;;;;;;22.55;10.25;;;;;;;;;;5026325;28;20459;-66
2023/08/09 07:06:21;;;;;;;15.68;8.52;;;;;;;;;;5050358;28;20092;-66
2023/08/09 07:08:53;;;;;;;14.50;6.95;;;;;;;;;;5036670;28;20060;-65
2023/08/09 07:11:20;;;;;;;16.77;7.03;;;;;;;;;;5041054;28;20053;-66
2023/08/09 07:13:47;;;;;;;13.82;6.65;;;;;;;;;;5033703;28;20051;-66
2023/08/09 07:16:13;;;;;;;15.18;7.03;;;;;;;;;;5009607;28;20060;-67
2023/08/09 07:18:40;;;;;;;12.95;6.57;;;;;;;;;;5011723;28;20076;-65
2023/08/09 07:21:07;;;;;;;16.55;6.07;;;;;;;;;;5019506;28;20049;-66
2023/08/09 07:23:36;;;;;;;13.05;6.82;;;;;;;;;;5024778;28;20049;-66
2023/08/09 07:26:02;;;;;;;;;;;;;;;;;;5036853;28;20057;-65
2023/08/09 07:28:29;;;;;;;11.50;5.82;;;;;;;;;;5034310;28;19929;-65
2023/08/09 07:30:56;;;;;;;16.08;6.65;;;;;;;;;;5020889;28;20057;-66
2023/08/09 07:33:23;;;;;;;17.13;7.60;;;;;;;;;;5057073;28;20057;-67
2023/08/09 07:35:50;;;;;;;14.07;6.28;;;;;;;;;;5019306;28;20057;-65
2023/08/09 07:38:17;;;;;;;18.55;8.70;;;;;;;;;;5048818;28;20045;-65
2023/08/09 07:40:45;;;;;;;14.40;7.53;;;;;;;;;;5053477;28;20053;-65
2023/08/09 07:43:13;;;;;;;14.27;6.65;;;;;;;;;;5022973;28;20065;-65
2023/08/09 07:45:42;;;;;;;12.80;6.47;;;;;;;;;;5015510;28;20053;-66
2023/08/09 07:48:09;;;;;;;12.70;6.38;;;;;;;;;;5019343;28;20056;-65
2023/08/09 07:50:35;;;;;;;16.05;6.97;;;;;;;;;;5034394;28;20057;-65
2023/08/09 07:53:02;;;;;;;14.75;7.10;;;;;;;;;;5054870;28;20065;-65
2023/08/09 07:55:31;;;;;;;13.02;6.43;;;;;;;;;;5035353;28;20152;-65
2023/08/09 07:57:59;;;;;;;;;;;;;;;;;;5042420;28;20114;-67
2023/08/09 08:00:26;;;;;;;11.77;5.90;;;;;;;;;;5032136;28;19996;-65
2023/08/09 08:02:54;;;;;;;15.15;7.72;;;;;;;;;;5041687;28;20048;-65
2023/08/09 08:05:21;;;;;;;14.30;7.63;;;;;;;;;;5036044;28;20045;-65
2023/08/09 08:07:52;;;;;;;15.50;7.38;;;;;;;;;;5042971;28;20055;-66
2023/08/09 08:10:19;;;;;;;13.45;6.60;;;;;;;;;;5039015;28;20144;-66
2023/08/09 08:12:48;;;;;;;12.38;6.50;;;;;;;;;;5037604;28;20088;-67
2023/08/09 08:15:18;;;;;;;12.43;6.03;;;;;;;;;;5034962;28;20048;-67
2023/08/09 08:17:46;;;;;;;13.18;6.30;;;;;;;;;;5078606;28;20060;-69
2023/08/09 08:20:17;;;;;;;10.60;5.60;;;;;;;;;;5041955;28;20134;-68
2023/08/09 08:22:44;;;;;;;12.00;5.65;;;;;;;;;;5040326;28;20080;-67
2023/08/09 08:25:12;;;;;;;10.20;5.50;;;;;;;;;;5033835;28;20106;-68
2023/08/09 08:27:39;;;;;;;14.35;6.30;;;;;;;;;;5041743;28;20296;-68
2023/08/09 08:30:11;;;;;;;10.77;5.80;;;;;;;;;;5039690;28;20057;-67
2023/08/09 08:32:39;;;;;;;13.30;5.88;;;;;;;;;;5036258;28;20060;-67
2023/08/09 08:35:10;;;;;;;;;;;;;;;;;;5038061;28;20107;-68
2023/08/09 08:37:39;;;;;;;8.80;4.65;;;;;;;;;;5074161;28;19988;-68
2023/08/09 08:40:08;;;;;;;10.90;4.03;;;;;;;;;;5039359;28;20057;-69
2023/08/09 08:42:36;;;;;;;9.75;4.10;;;;;;;;;;5069599;28;20061;-69
2023/08/09 08:45:09;;;;;;;9.10;4.03;;;;;;;;;;5035142;28;20059;-69
2023/08/09 08:47:40;;;;;;;9.07;4.05;;;;;;;;;;5041546;28;20065;-67
2023/08/09 08:50:13;;;;;;;9.05;4.28;;;;;;;;;;5048901;28;20139;-68
2023/08/09 08:52:42;;;;;;;7.85;3.95;;;;;;;;;;5056720;28;20111;-69
2023/08/09 08:55:11;;;;;;;14.20;3.80;;;;;;;;;;5027566;28;20061;-70
2023/08/09 08:57:38;;;;;;;8.13;3.83;;;;;;;;;;5021973;28;20061;-69
2023/08/09 09:00:15;;;;;;;17.05;8.07;;;;;;;;;;5019733;28;20061;-68
2023/08/09 09:02:45;;;;;;;13.80;6.43;;;;;;;;;;5019824;28;20053;-68
2023/08/09 09:05:13;;;;;;;15.57;4.65;;;;;;;;;;5016849;28;20049;-68
2023/08/09 09:07:41;;;;;;;6.68;3.40;;;;;;;;;;5049531;28;20087;-68
2023/08/09 09:10:12;;;;;;;8.50;3.67;;;;;;;;;;5049850;28;20049;-69
2023/08/09 09:12:41;;;;;;;10.05;3.60;;;;;;;;;;5055752;28;20053;-68
2023/08/09 09:15:14;;;;;;;9.63;3.60;;;;;;;;;;5047639;28;20053;-68
2023/08/09 09:17:42;;;;;;;6.88;2.90;;;;;;;;;;5054358;28;20049;-67
2023/08/09 09:20:21;;;;;;;7.72;3.70;;;;;;;;;;5047959;28;20049;-70
2023/08/09 09:22:48;;;;;;;7.97;3.88;;;;;;;;;;5021437;28;20065;-68
2023/08/09 09:25:18;;;;;;;6.80;2.80;;;;;;;;;;5046327;28;20053;-69
2023/08/09 09:27:49;;;;;;;7.90;3.00;;;;;;;;;;5020256;28;20056;-68
2023/08/09 09:30:19;;;;;;;4.35;2.08;;;;;;;;;;5017455;28;20063;-69
2023/08/09 09:32:57;;;;;;;4.50;2.17;;;;;;;;;;5052489;28;20057;-69
2023/08/09 09:35:26;;;;;;;7.07;2.35;;;;;;;;;;4999939;28;20059;-68
2023/08/09 09:37:54;;;;;;;5.95;2.40;;;;;;;;;;5054084;28;20064;-68
2023/08/09 09:40:27;;;;;;;4.68;2.17;;;;;;;;;;5014423;28;20157;-68
2023/08/09 09:42:56;;;;;;;7.30;2.10;;;;;;;;;;5036706;28;20057;-67
2023/08/09 09:45:25;;;;;;;3.55;1.67;;;;;;;;;;5024691;28;20067;-69
2023/08/09 09:47:56;;;;;;;3.47;1.92;;;;;;;;;;5056702;28;20087;-69
2023/08/09 09:50:28;;;;;;;6.60;2.42;;;;;;;;;;5033282;28;20056;-68
2023/08/09 09:52:57;;;;;;;8.15;2.00;;;;;;;;;;5057852;28;20136;-69
2023/08/09 09:55:28;;;;;;;2.90;1.67;;;;;;;;;;5046284;28;20064;-67
2023/08/09 09:57:57;;;;;;;10.40;1.63;;;;;;;;;;5022277;28;20057;-69
2023/08/09 10:00:25;;;;;;;4.32;1.95;;;;;;;;;;5044968;28;20060;-69
2023/08/09 10:02:55;;;;;;;;;;;;;;;;;;5019373;28;20045;-67
2023/08/09 10:05:28;;;;;;;3.65;1.80;;;;;;;;;;5017780;28;19925;-69
2023/08/09 10:07:56;;;;;;;7.90;2.38;;;;;;;;;;5019069;28;20067;-69
2023/08/09 10:10:24;;;;;;;6.18;3.08;;;;;;;;;;5024059;28;20052;-67
2023/08/09 10:12:54;;;;;;;8.60;4.07;;;;;;;;;;5035045;28;20053;-69
2023/08/09 10:15:24;;;;;;;4.53;2.25;;;;;;;;;;4949479;28;20059;-70
2023/08/09 10:18:00;;;;;;;8.05;2.80;;;;;;;;;;5009190;28;20053;-69
2023/08/09 10:20:29;;;;;;;5.55;2.20;;;;;;;;;;5019579;28;20134;-68
2023/08/09 10:22:59;;;;;;;4.40;2.10;;;;;;;;;;5040302;28;20069;-70
2023/08/09 10:25:43;;;;;;;4.95;2.60;;;;;;;;;;5026043;28;20056;-70
2023/08/09 10:28:10;;;;;;;4.75;2.38;;;;;;;;;;5016868;28;20060;-68
2023/08/09 10:30:58;;;;;;;7.20;2.60;;;;;;;;;;5016801;28;20057;-68
2023/08/09 10:33:27;;;;;;;7.75;2.80;;;;;;;;;;5023638;28;20080;-69
2023/08/09 10:35:56;;;;;;;6.70;2.67;;;;;;;;;;5056905;28;20055;-69
2023/08/09 10:38:40;;;;;;;5.30;2.88;;;;;;;;;;5029617;28;20045;-71
2023/08/09 10:41:14;;;;;;;6.35;2.28;;;;;;;;;;5025542;28;20045;-68
2023/08/09 10:43:44;;;;;;;8.63;2.22;;;;;;;;;;5004420;28;20085;-67
2023/08/09 10:46:19;;;;;;;4.88;2.45;;;;;;;;;;4978251;28;20140;-68
2023/08/09 10:49:05;;;;;;;4.47;2.20;;;;;;;;;;5056447;28;20049;-69
2023/08/09 10:51:46;;;;;;;5.00;2.33;;;;;;;;;;5021936;28;20061;-68
2023/08/09 10:54:13;;;;;;;5.88;2.80;;;;;;;;;;4990094;28;20294;-70
2023/08/09 10:56:47;;;;;;;5.65;2.90;;;;;;;;;;5039416;28;20057;-68
2023/08/09 10:59:21;;;;;;;4.78;2.67;;;;;;;;;;5043851;28;20049;-68
2023/08/09 11:06:28;;;;;;;5.95;2.78;;;;;;;;;;4872019;28;20051;-70
2023/08/09 11:09:08;;;;;;;4.10;2.30;;;;;;;;;;4923876;29;20323;-70
2023/08/09 11:11:58;;;;;;;7.03;2.30;;;;;;;;;;4927840;28;20043;-68
2023/08/09 11:14:54;;;;;;;4.78;2.25;;;;;;;;;;4879215;28;20107;-69
2023/08/09 11:17:25;;;;;;;3.28;1.92;;;;;;;;;;4915965;29;20058;-70
2023/08/09 11:20:15;;;;;;;13.13;5.80;;;;;;;;;;4915133;29;20087;-72
2023/08/09 11:22:53;;;;;;;6.38;2.75;;;;;;;;;;4927385;29;20073;-69
2023/08/09 11:25:31;;;;;;;7.20;2.63;;;;;;;;;;4935468;28;20055;-70
2023/08/09 11:28:11;;;;;;;6.82;2.25;;;;;;;;;;4922174;29;20083;-70
2023/08/09 11:30:45;;;;;;;7.78;2.35;;;;;;;;;;4942492;28;20058;-71
2023/08/09 11:33:15;;;;;;;4.63;2.30;;;;;;;;;;4924721;29;20098;-70
2023/08/09 11:35:52;;;;;;;5.70;2.33;;;;;;;;;;4895790;29;20051;-69
2023/08/09 11:38:19;;;;;;;6.90;1.95;;;;;;;;;;4900090;29;20095;-71
2023/08/09 11:40:52;;;;;;;3.78;1.80;;;;;;;;;;4925484;28;20162;-71
2023/08/09 11:43:20;;;;;;;4.90;1.92;;;;;;;;;;5005974;28;20081;-70
2023/08/09 11:45:52;;;;;;;7.57;2.08;;;;;;;;;;4960669;28;20045;-70
2023/08/09 11:48:41;;;;;;;3.30;1.63;;;;;;;;;;5015820;28;20103;-71
2023/08/09 11:51:12;;;;;;;5.28;1.70;;;;;;;;;;5020159;28;20102;-69
2023/08/09 11:53:40;;;;;;;5.68;1.63;;;;;;;;;;5038505;28;20130;-71
2023/08/09 11:56:13;;;;;;;6.55;2.55;;;;;;;;;;5021106;28;20052;-70
2023/08/09 11:58:44;;;;;;;5.22;2.47;;;;;;;;;;5020527;28;20076;-70
2023/08/09 12:01:20;;;;;;;4.18;2.10;;;;;;;;;;5019941;28;20049;-70
2023/08/09 12:03:49;;;;;;;5.65;1.90;;;;;;;;;;5063719;28;20165;-70
2023/08/09 12:06:20;;;;;;;4.32;1.52;;;;;;;;;;4989428;28;20057;-71
2023/08/09 12:08:47;;;;;;;5.82;1.65;;;;;;;;;;5044068;28;20052;-70
2023/08/09 12:11:22;;;;;;;7.97;2.10;;;;;;;;;;5060748;28;20052;-70
2023/08/09 12:13:49;;;;;;;3.72;1.38;;;;;;;;;;5045378;28;20068;-71
2023/08/09 12:16:16;;;;;;;6.90;1.40;;;;;;;;;;5016634;28;20084;-71
2023/08/09 12:18:45;;;;;;;2.25;1.23;;;;;;;;;;5046102;28;20147;-69
2023/08/09 12:21:13;;;;;;;7.82;1.65;;;;;;;;;;5060484;28;20061;-70
2023/08/09 12:23:43;;;;;;;2.60;1.50;;;;;;;;;;5062995;28;20059;-68
2023/08/09 12:26:10;;;;;;;6.75;2.20;;;;;;;;;;5039845;28;20120;-67
2023/08/09 12:28:45;;;;;;;6.28;1.50;;;;;;;;;;5049014;28;20056;-67
2023/08/09 12:31:12;;;;;;;5.07;1.50;;;;;;;;;;5045116;28;20049;-68
2023/08/09 12:33:39;;;;;;;4.40;1.10;;;;;;;;;;5065230;28;20052;-68
2023/08/09 12:36:08;;;;;;;1.90;0.90;;;;;;;;;;5007427;28;20052;-68
2023/08/09 12:38:38;;;;;;;;;;;;;;;;;;5042349;28;20063;-68
2023/08/09 12:41:06;;;;;;;6.25;1.20;;;;;;;;;;5065773;28;19993;-71
2023/08/09 12:43:35;;;;;;;;;;;;;;;;;;5063743;28;20048;-71
2023/08/09 12:46:04;;;;;;;3.38;1.17;;;;;;;;;;5058427;28;19924;-69
2023/08/09 12:48:36;;;;;;;;;;;;;;;;;;5044721;28;20045;-70
2023/08/09 12:51:08;;;;;;;5.45;0.98;;;;;;;;;;5063175;28;19952;-69
2023/08/09 12:53:35;;;;;;;3.17;1.33;;;;;;;;;;5063873;28;20056;-70
2023/08/09 12:56:03;;;;;;;2.70;0.95;;;;;;;;;;5039707;28;20076;-70
2023/08/09 12:58:33;;;;;;;1.75;0.95;;;;;;;;;;5058496;28;20057;-71
2023/08/09 13:01:00;;;;;;;6.22;1.67;;;;;;;;;;5047270;28;20048;-70
2023/08/09 13:03:29;;;;;;;4.20;0.83;;;;;;;;;;5044039;28;20325;-70
2023/08/09 13:06:01;;;;;;;2.17;0.90;;;;;;;;;;5022299;28;20052;-70
2023/08/09 13:08:30;;;;;;;10.15;2.60;;;;;;;;;;5041996;28;20054;-72
2023/08/09 13:10:58;;;;;;;3.95;1.50;;;;;;;;;;5048332;28;20041;-69
2023/08/09 13:13:26;;;;;;;3.72;1.02;;;;;;;;;;5042568;28;20063;-70
2023/08/09 13:15:53;;;;;;;4.32;0.90;;;;;;;;;;5018208;28;20048;-69
2023/08/09 13:18:20;;;;;;;2.85;1.25;;;;;;;;;;5047080;28;20056;-70
2023/08/09 13:20:48;;;;;;;3.65;1.00;;;;;;;;;;5041889;28;20092;-71
2023/08/09 13:23:15;;;;;;;5.35;0.95;;;;;;;;;;5061402;28;20067;-69
2023/08/09 13:25:41;;;;;;;2.72;0.82;;;;;;;;;;5030147;28;20067;-70
2023/08/09 13:28:10;;;;;;;3.42;1.02;;;;;;;;;;5058337;28;20048;-71
2023/08/09 13:30:37;;;;;;;2.47;0.90;;;;;;;;;;5037546;28;20056;-71
2023/08/09 13:33:05;;;;;;;2.75;0.88;;;;;;;;;;5042170;28;20122;-70
2023/08/09 13:35:34;;;;;;;4.45;1.00;;;;;;;;;;5029818;28;20064;-70
2023/08/09 13:38:08;;;;;;;2.28;0.90;;;;;;;;;;5052622;28;20147;-71
2023/08/09 13:40:37;;;;;;;6.55;1.20;;;;;;;;;;5041773;28;20044;-71
2023/08/09 13:43:11;;;;;;;4.60;0.90;;;;;;;;;;5047325;28;20052;-71
2023/08/09 13:45:46;;;;;;;5.28;0.90;;;;;;;;;;5058307;28;20044;-71
2023/08/09 13:48:13;;;;;;;2.67;0.70;;;;;;;;;;5063070;28;20040;-71
2023/08/09 13:50:46;;;;;;;4.93;1.10;;;;;;;;;;5040985;28;20044;-71
2023/08/09 13:53:15;;;;;;;5.65;1.15;;;;;;;;;;5062960;28;20151;-71
2023/08/09 13:55:45;;;;;;;3.20;1.10;;;;;;;;;;5045670;28;20132;-76
2023/08/09 13:58:33;;;;;;;3.03;0.90;;;;;;;;;;5019123;28;20049;-72
2023/08/09 14:01:00;;;;;;;6.80;1.42;;;;;;;;;;5031236;28;20057;-72
2023/08/09 14:03:27;;;;;;;4.25;0.90;;;;;;;;;;5043845;28;20102;-73
2023/08/09 14:05:54;;;;;;;2.88;0.85;;;;;;;;;;5009431;28;20044;-70
2023/08/09 14:08:23;;;;;;;3.20;0.93;;;;;;;;;;5038128;28;20052;-73
2023/08/09 14:10:52;;;;;;;1.83;0.82;;;;;;;;;;5046080;28;20056;-70
2023/08/09 14:13:22;;;;;;;3.50;1.25;;;;;;;;;;5040401;28;20079;-72
2023/08/09 14:15:50;;;;;;;5.78;2.30;;;;;;;;;;5052003;28;20135;-74
2023/08/09 14:18:17;;;;;;;;;;;;;;;;;;5042395;28;20048;-73
2023/08/09 14:20:45;;;;;;;2.47;0.77;;;;;;;;;;5041337;28;19924;-72
2023/08/09 14:23:13;;;;;;;1.10;0.68;;;;;;;;;;5044654;28;20053;-72
2023/08/09 14:25:44;;;;;;;2.33;0.77;;;;;;;;;;4992060;28;20071;-71
2023/08/09 14:28:12;;;;;;;3.03;0.80;;;;;;;;;;5017550;28;20048;-73
2023/08/09 14:30:39;;;;;;;2.33;0.77;;;;;;;;;;5042417;28;20058;-71
2023/08/09 14:33:09;;;;;;;3.97;0.98;;;;;;;;;;5063065;28;20322;-72
2023/08/09 14:35:36;;;;;;;2.13;0.80;;;;;;;;;;5049366;28;20168;-72
2023/08/09 14:38:04;;;;;;;3.63;0.90;;;;;;;;;;5069836;28;20048;-73
2023/08/09 14:40:35;;;;;;;3.70;0.95;;;;;;;;;;5036085;28;20181;-74
2023/08/09 14:43:04;;;;;;;5.82;2.55;;;;;;;;;;5043599;28;20052;-72
2023/08/09 14:45:32;;;;;;;1.80;0.82;;;;;;;;;;5001951;28;20064;-74
2023/08/09 14:47:59;;;;;;;1.00;0.80;;;;;;;;;;5046482;28;20207;-74
2023/08/09 14:50:26;;;;;;;3.10;0.98;;;;;;;;;;5036373;28;20154;-73
2023/08/09 14:52:54;;;;;;;4.35;1.00;;;;;;;;;;5043310;28;20052;-74
2023/08/09 14:55:25;;;;;;;1.25;0.70;;;;;;;;;;5025750;28;20052;-73
2023/08/09 14:57:52;;;;;;;4.90;1.00;;;;;;;;;;5040364;28;20052;-72